createdAt,value
2018-02-27T00:00:40.292Z,86.20
2018-02-27T00:03:20.283Z,86.10
2018-02-27T00:05:53.385Z,86.10
2018-02-27T00:08:33.237Z,86.20
2018-02-27T00:11:13.166Z,86.30
2018-02-27T00:13:52.410Z,86.20
2018-02-27T00:16:31.928Z,86.30
2018-02-27T00:19:09.758Z,86.00
2018-02-27T00:21:44.772Z,85.10
2018-02-27T00:24:23.256Z,85.10
2018-02-27T00:27:00.120Z,84.20
2018-02-27T00:29:40.696Z,83.50
2018-02-27T00:32:20.389Z,81.60
2018-02-27T00:34:59.716Z,79.80
2018-02-27T00:37:33.035Z,79.40
2018-02-27T00:40:08.116Z,78.20
2018-02-27T00:42:48.504Z,78.20
2018-02-27T00:45:31.470Z,78.20
2018-02-27T00:48:10.955Z,78.00
2018-02-27T00:50:45.222Z,77.70
2018-02-27T00:53:24.765Z,77.10
2018-02-27T00:56:05.535Z,77.00
2018-02-27T00:58:45.083Z,77.00
2018-02-27T01:01:18.818Z,77.20
2018-02-27T01:03:52.417Z,76.50
2018-02-27T01:06:25.673Z,75.90
2018-02-27T01:09:04.003Z,75.70
2018-02-27T01:11:43.210Z,75.70
2018-02-27T01:14:21.344Z,75.70
2018-02-27T01:17:01.700Z,75.00
2018-02-27T01:19:41.902Z,74.90
2018-02-27T01:22:19.121Z,74.60
2018-02-27T01:24:59.899Z,74.60
2018-02-27T01:27:40.717Z,73.90
2018-02-27T01:30:21.405Z,73.80
2018-02-27T01:33:00.866Z,74.00
2018-02-27T01:35:38.692Z,73.90
2018-02-27T01:38:17.742Z,73.60
2018-02-27T01:40:58.106Z,73.90
2018-02-27T01:43:36.422Z,74.20
2018-02-27T01:46:13.600Z,74.40
2018-02-27T01:48:53.152Z,74.70
2018-02-27T01:51:26.686Z,74.20
2018-02-27T01:54:05.434Z,74.20
2018-02-27T01:56:42.973Z,74.30
2018-02-27T01:59:21.698Z,74.40
2018-02-27T02:02:01.117Z,74.30
2018-02-27T02:04:37.921Z,74.30
2018-02-27T02:07:11.262Z,74.40
2018-02-27T02:09:48.473Z,74.40
2018-02-27T02:12:30.490Z,74.30
2018-02-27T02:15:05.199Z,74.50
2018-02-27T02:17:37.977Z,74.50
2018-02-27T02:20:16.824Z,74.30
2018-02-27T02:22:58.078Z,74.10
2018-02-27T02:25:35.264Z,74.10
2018-02-27T02:28:13.662Z,74.20
2018-02-27T02:30:52.386Z,74.50
2018-02-27T02:33:30.210Z,75.30
2018-02-27T02:36:09.711Z,74.70
2018-02-27T02:38:49.479Z,74.70
2018-02-27T02:41:30.915Z,75.10
2018-02-27T02:44:07.858Z,75.50
2018-02-27T02:46:45.583Z,75.60
2018-02-27T02:49:24.038Z,76.00
2018-02-27T02:52:02.542Z,76.00
2018-02-27T02:54:42.810Z,76.00
2018-02-27T02:57:21.983Z,76.10
2018-02-27T03:00:00.171Z,76.00
2018-02-27T03:02:41.679Z,76.00
2018-02-27T03:05:23.996Z,76.10
2018-02-27T03:08:02.782Z,76.00
2018-02-27T03:10:41.282Z,75.80
2018-02-27T03:13:23.605Z,75.90
2018-02-27T03:16:01.550Z,75.90
2018-02-27T03:18:41.322Z,75.90
2018-02-27T03:21:19.775Z,75.70
2018-02-27T03:23:58.062Z,76.00
2018-02-27T03:26:36.803Z,76.20
2018-02-27T03:29:09.965Z,75.70
2018-02-27T03:31:50.518Z,75.90
2018-02-27T03:34:28.755Z,75.90
2018-02-27T03:37:05.768Z,76.60
2018-02-27T03:39:43.593Z,76.00
2018-02-27T03:42:21.787Z,76.00
2018-02-27T03:45:00.707Z,75.50
2018-02-27T03:47:39.617Z,75.70
2018-02-27T03:50:17.763Z,75.70
2018-02-27T03:52:54.648Z,75.70
2018-02-27T03:55:34.453Z,75.90
2018-02-27T03:58:12.636Z,76.10
2018-02-27T04:00:49.942Z,76.10
2018-02-27T04:03:27.855Z,76.00
2018-02-27T04:06:07.207Z,76.60
2018-02-27T04:08:45.585Z,76.50
2018-02-27T04:11:25.040Z,76.90
2018-02-27T04:14:02.380Z,76.90
2018-02-27T04:16:41.783Z,77.00
2018-02-27T04:19:22.743Z,77.00
2018-02-27T04:22:01.144Z,77.10
2018-02-27T04:24:41.039Z,77.60
2018-02-27T04:27:19.327Z,77.60
2018-02-27T04:29:52.603Z,78.00
2018-02-27T04:32:31.369Z,78.00
2018-02-27T04:35:08.651Z,78.00
2018-02-27T04:37:52.232Z,78.20
2018-02-27T04:40:31.982Z,78.40
2018-02-27T04:43:11.832Z,78.00
2018-02-27T04:45:52.247Z,78.20
2018-02-27T04:48:33.288Z,78.20
2018-02-27T04:51:11.497Z,78.30
2018-02-27T04:53:50.080Z,78.50
2018-02-27T04:56:28.969Z,78.60
2018-02-27T04:59:08.660Z,78.50
2018-02-27T05:01:51.005Z,79.20
2018-02-27T05:04:30.393Z,79.10
2018-02-27T05:07:07.696Z,79.50
2018-02-27T05:09:46.717Z,80.00
2018-02-27T05:12:25.977Z,80.10
2018-02-27T05:15:05.552Z,80.10
2018-02-27T05:17:38.725Z,80.00
2018-02-27T05:20:19.826Z,80.10
2018-02-27T05:22:58.857Z,80.00
2018-02-27T05:25:39.605Z,80.30
2018-02-27T05:28:12.615Z,80.20
2018-02-27T05:30:45.377Z,80.30
2018-02-27T05:33:25.259Z,80.40
2018-02-27T05:35:57.914Z,80.90
2018-02-27T05:38:36.458Z,80.90
2018-02-27T05:41:11.577Z,81.50
2018-02-27T05:43:44.083Z,80.80
2018-02-27T05:46:18.502Z,81.10
2018-02-27T05:48:56.682Z,80.10
2018-02-27T05:51:37.182Z,80.10
2018-02-27T05:54:09.842Z,80.20
2018-02-27T05:56:48.293Z,80.90
2018-02-27T05:59:25.757Z,80.70
2018-02-27T06:02:06.590Z,82.50
2018-02-27T06:04:46.322Z,81.80
2018-02-27T06:07:24.860Z,81.10
2018-02-27T06:10:06.662Z,81.20
2018-02-27T06:12:47.949Z,81.40
2018-02-27T06:15:23.630Z,81.60
2018-02-27T06:18:03.133Z,81.50
2018-02-27T06:20:37.160Z,81.70
2018-02-27T06:23:14.917Z,81.50
2018-02-27T06:25:52.029Z,81.40
2018-02-27T06:28:35.490Z,81.30
2018-02-27T06:31:10.060Z,81.40
2018-02-27T06:33:44.224Z,81.40
2018-02-27T06:36:21.918Z,81.40
2018-02-27T06:39:00.312Z,81.10
2018-02-27T06:41:38.156Z,81.10
2018-02-27T06:44:20.424Z,81.70
2018-02-27T06:46:59.539Z,81.40
2018-02-27T06:49:41.332Z,81.60
2018-02-27T06:52:20.410Z,81.40
2018-02-27T06:55:00.545Z,82.10
2018-02-27T06:57:38.149Z,81.40
2018-02-27T07:00:18.284Z,81.40
2018-02-27T07:02:57.877Z,81.50
2018-02-27T07:05:36.583Z,81.50
2018-02-27T07:08:15.394Z,81.40
2018-02-27T07:10:54.820Z,80.90
2018-02-27T07:13:32.835Z,81.50
2018-02-27T07:16:15.068Z,81.30
2018-02-27T07:18:55.061Z,81.40
2018-02-27T07:21:34.062Z,81.00
2018-02-27T07:24:12.976Z,81.00
2018-02-27T07:26:46.488Z,80.50
2018-02-27T07:29:25.246Z,80.50
2018-02-27T07:32:06.575Z,80.40
2018-02-27T07:34:45.446Z,80.60
2018-02-27T07:37:20.314Z,80.40
2018-02-27T07:39:57.853Z,80.40
2018-02-27T07:42:37.154Z,80.40
2018-02-27T07:45:15.518Z,80.30
2018-02-27T07:47:55.276Z,81.00
2018-02-27T07:50:35.378Z,80.40
2018-02-27T07:53:15.727Z,79.40
2018-02-27T07:55:53.555Z,79.20
2018-02-27T07:58:26.542Z,79.20
2018-02-27T08:01:05.231Z,78.90
2018-02-27T08:03:44.632Z,78.00
2018-02-27T08:06:26.562Z,77.40
2018-02-27T08:09:06.479Z,76.70
2018-02-27T08:11:44.144Z,76.50
2018-02-27T08:14:18.502Z,75.70
2018-02-27T08:16:58.641Z,75.60
2018-02-27T08:19:38.486Z,74.90
2018-02-27T08:22:17.637Z,74.20
2018-02-27T08:24:50.806Z,73.30
2018-02-27T08:27:34.097Z,73.20
2018-02-27T08:30:16.486Z,73.20
2018-02-27T08:32:51.905Z,69.80
2018-02-27T08:35:34.214Z,66.40
2018-02-27T08:38:12.102Z,63.30
2018-02-27T08:40:51.708Z,61.00
2018-02-27T08:43:33.321Z,59.10
2018-02-27T08:46:12.233Z,59.10
2018-02-27T08:48:46.629Z,54.40
2018-02-27T08:51:27.078Z,54.40
2018-02-27T08:54:06.597Z,52.40
2018-02-27T08:56:43.482Z,50.70
2018-02-27T08:59:23.402Z,49.20
2018-02-27T09:02:05.193Z,49.00
2018-02-27T09:04:38.537Z,50.50
2018-02-27T09:07:17.458Z,51.40
2018-02-27T09:09:56.543Z,49.10
2018-02-27T09:12:35.863Z,49.50
2018-02-27T09:15:08.828Z,48.60
2018-02-27T09:17:50.474Z,49.00
2018-02-27T09:20:29.426Z,48.50
2018-02-27T09:23:09.678Z,48.00
2018-02-27T09:25:42.631Z,44.70
2018-02-27T09:28:22.884Z,41.10
2018-02-27T09:30:57.649Z,38.80
2018-02-27T09:33:32.467Z,42.20
2018-02-27T09:36:11.686Z,43.00
2018-02-27T09:38:54.515Z,42.20
2018-02-27T09:41:34.884Z,39.80
2018-02-27T09:44:10.485Z,39.20
2018-02-27T09:46:50.317Z,40.30
2018-02-27T09:49:25.398Z,40.40
2018-02-27T09:52:02.693Z,40.40
2018-02-27T09:54:44.974Z,40.50
2018-02-27T09:57:23.514Z,38.90
2018-02-27T10:00:02.059Z,36.00
2018-02-27T10:02:41.190Z,37.50
2018-02-27T10:05:21.768Z,36.10
2018-02-27T10:07:56.921Z,36.00
2018-02-27T10:10:39.264Z,34.70
2018-02-27T10:13:19.490Z,34.70
2018-02-27T10:16:00.117Z,32.80
2018-02-27T10:18:33.178Z,29.30
2018-02-27T10:21:12.649Z,29.30
2018-02-27T10:23:52.608Z,34.00
2018-02-27T10:26:33.231Z,33.40
2018-02-27T10:29:13.000Z,33.30
2018-02-27T10:31:50.172Z,35.00
2018-02-27T10:34:29.125Z,34.00
2018-02-27T10:37:15.497Z,34.70
2018-02-27T10:39:56.841Z,33.60
2018-02-27T10:42:41.962Z,33.50
2018-02-27T10:45:23.243Z,30.20
2018-02-27T10:48:04.674Z,28.90
2018-02-27T10:50:37.082Z,29.30
2018-02-27T10:53:14.430Z,29.40
2018-02-27T10:55:55.355Z,29.00
2018-02-27T10:58:30.266Z,29.00
2018-02-27T11:01:26.395Z,28.60
2018-02-27T11:04:00.686Z,28.60
2018-02-27T11:06:42.678Z,27.90
2018-02-27T11:09:22.962Z,28.60
2018-02-27T11:12:04.085Z,29.40
2018-02-27T11:14:38.879Z,27.90
2018-02-27T11:17:17.819Z,27.90
2018-02-27T11:19:55.823Z,28.30
2018-02-27T11:22:33.319Z,27.60
2018-02-27T11:25:10.123Z,27.70
2018-02-27T11:27:46.607Z,27.70
2018-02-27T11:30:29.759Z,27.70
2018-02-27T11:33:11.883Z,27.90
2018-02-27T11:35:54.240Z,26.80
2018-02-27T11:38:30.941Z,27.20
2018-02-27T11:41:09.827Z,27.00
2018-02-27T11:43:46.152Z,27.50
2018-02-27T11:46:28.369Z,30.20
2018-02-27T11:49:13.224Z,30.10
2018-02-27T11:51:53.440Z,30.70
2018-02-27T11:54:34.507Z,29.00
2018-02-27T11:57:08.262Z,28.40
2018-02-27T11:59:44.076Z,32.00
2018-02-27T12:02:23.468Z,30.80
2018-02-27T12:05:02.190Z,31.00
2018-02-27T12:07:40.517Z,28.40
2018-02-27T12:10:18.447Z,28.40
2018-02-27T12:12:58.440Z,30.20
2018-02-27T12:15:36.351Z,30.30
2018-02-27T12:18:17.219Z,28.90
2018-02-27T12:20:51.826Z,28.80
2018-02-27T12:23:24.968Z,31.90
2018-02-27T12:26:02.456Z,34.90
2018-02-27T12:28:46.272Z,37.70
2018-02-27T12:31:22.355Z,33.90
2018-02-27T12:34:00.191Z,33.90
2018-02-27T12:36:40.389Z,35.00
2018-02-27T12:39:18.733Z,34.90
2018-02-27T12:41:59.641Z,34.90
2018-02-27T12:44:35.036Z,35.80
2018-02-27T12:47:14.160Z,35.70
2018-02-27T12:49:54.400Z,36.60
2018-02-27T12:52:34.494Z,36.50
2018-02-27T12:55:14.445Z,38.50
2018-02-27T12:57:52.815Z,40.00
2018-02-27T13:00:33.163Z,38.50
2018-02-27T13:03:11.745Z,38.50
2018-02-27T13:05:48.893Z,37.00
2018-02-27T13:08:26.050Z,38.10
2018-02-27T13:11:04.045Z,41.80
2018-02-27T13:13:43.483Z,41.80
2018-02-27T13:16:24.623Z,42.20
2018-02-27T13:19:04.835Z,40.90
2018-02-27T13:21:44.227Z,38.30
2018-02-27T13:24:21.378Z,37.70
2018-02-27T13:27:02.940Z,36.60
2018-02-27T13:29:44.950Z,35.10
2018-02-27T13:32:20.938Z,34.70
2018-02-27T13:35:01.029Z,34.70
2018-02-27T13:37:40.481Z,34.70
2018-02-27T13:40:19.313Z,34.80
2018-02-27T13:42:54.443Z,38.80
2018-02-27T13:45:29.757Z,37.90
2018-02-27T13:48:02.383Z,37.90
2018-02-27T13:50:38.596Z,37.10
2018-02-27T13:53:15.228Z,37.90
2018-02-27T13:55:49.272Z,42.20
2018-02-27T13:58:30.013Z,42.30
2018-02-27T14:01:09.813Z,40.10
2018-02-27T14:03:52.200Z,42.80
2018-02-27T14:06:30.661Z,42.80
2018-02-27T14:09:11.046Z,41.20
2018-02-27T14:11:45.895Z,39.40
2018-02-27T14:14:27.694Z,40.80
2018-02-27T14:17:07.141Z,41.50
2018-02-27T14:19:46.354Z,42.20
2018-02-27T14:22:25.025Z,43.00
2018-02-27T14:25:04.573Z,39.70
2018-02-27T14:27:45.490Z,36.00
2018-02-27T14:30:27.255Z,35.90
2018-02-27T14:33:05.986Z,33.20
2018-02-27T14:35:47.760Z,34.30
2018-02-27T14:38:21.856Z,35.60
2018-02-27T14:40:58.706Z,37.80
2018-02-27T14:43:36.036Z,37.80
2018-02-27T14:46:13.171Z,37.70
2018-02-27T14:48:54.612Z,36.70
2018-02-27T14:51:39.078Z,37.20
2018-02-27T14:54:18.957Z,38.30
2018-02-27T14:56:52.508Z,39.20
2018-02-27T14:59:31.411Z,40.80
2018-02-27T15:02:11.494Z,40.20
2018-02-27T15:04:51.859Z,40.10
2018-02-27T15:07:30.395Z,39.50
2018-02-27T15:10:04.495Z,37.80
2018-02-27T15:12:38.952Z,36.00
2018-02-27T15:15:18.006Z,36.10
2018-02-27T15:17:59.871Z,39.80
2018-02-27T15:20:32.795Z,39.80
2018-02-27T15:23:10.131Z,42.60
2018-02-27T15:25:47.983Z,44.00
2018-02-27T15:28:27.781Z,47.80
2018-02-27T15:31:07.346Z,47.80
2018-02-27T15:33:47.146Z,47.70
2018-02-27T15:36:27.030Z,47.60
2018-02-27T15:39:09.505Z,45.90
2018-02-27T15:41:50.141Z,44.90
2018-02-27T15:44:29.900Z,44.10
2018-02-27T15:47:08.753Z,44.20
2018-02-27T15:49:43.506Z,46.20
2018-02-27T15:52:18.286Z,46.90
2018-02-27T15:54:56.281Z,47.50
2018-02-27T15:57:35.735Z,48.70
2018-02-27T16:00:14.838Z,49.00
2018-02-27T16:02:47.991Z,49.90
2018-02-27T16:05:28.205Z,49.90
2018-02-27T16:08:06.414Z,50.20
2018-02-27T16:10:45.808Z,50.80
2018-02-27T16:13:25.918Z,51.30
2018-02-27T16:16:05.057Z,51.30
2018-02-27T16:18:43.479Z,51.30
2018-02-27T16:21:20.457Z,51.20
2018-02-27T16:24:01.232Z,51.30
2018-02-27T16:26:40.569Z,51.20
2018-02-27T16:29:18.902Z,51.10
2018-02-27T16:31:59.596Z,50.30
2018-02-27T16:34:41.023Z,50.20
2018-02-27T16:37:21.778Z,49.90
2018-02-27T16:39:57.807Z,49.90
2018-02-27T16:42:31.489Z,49.80
2018-02-27T16:45:12.798Z,50.90
2018-02-27T16:47:57.195Z,50.80
2018-02-27T16:50:37.468Z,51.10
2018-02-27T16:53:16.634Z,51.70
2018-02-27T16:55:57.322Z,51.70
2018-02-27T16:58:31.002Z,51.90
2018-02-27T17:01:08.178Z,52.30
2018-02-27T17:03:44.896Z,52.70
2018-02-27T17:06:22.061Z,52.70
2018-02-27T17:08:55.456Z,53.00
2018-02-27T17:11:34.758Z,52.60
2018-02-27T17:14:16.095Z,53.40
2018-02-27T17:16:54.525Z,53.40
2018-02-27T17:19:28.568Z,53.70
2018-02-27T17:22:06.897Z,53.60
2018-02-27T17:24:48.008Z,53.60
2018-02-27T17:27:25.126Z,54.10
2018-02-27T17:30:00.448Z,54.00
2018-02-27T17:32:39.708Z,53.90
2018-02-27T17:35:18.966Z,54.70
2018-02-27T17:37:53.210Z,54.70
2018-02-27T17:40:34.283Z,54.80
2018-02-27T17:43:08.223Z,55.10
2018-02-27T17:45:42.879Z,55.10
2018-02-27T17:48:15.195Z,55.30
2018-02-27T17:50:55.011Z,55.60
2018-02-27T17:53:33.888Z,55.60
2018-02-27T17:56:14.454Z,56.00
2018-02-27T17:58:52.845Z,56.20
2018-02-27T18:01:31.381Z,56.40
2018-02-27T18:04:10.208Z,56.50
2018-02-27T18:06:49.707Z,56.30
2018-02-27T18:09:28.195Z,56.30
2018-02-27T18:12:08.301Z,56.70
2018-02-27T18:14:47.960Z,56.10
2018-02-27T18:17:27.073Z,55.90
2018-02-27T18:20:10.524Z,56.00
2018-02-27T18:22:46.412Z,56.10
2018-02-27T18:25:24.865Z,56.30
2018-02-27T18:28:04.565Z,56.60
2018-02-27T18:30:44.311Z,56.90
2018-02-27T18:33:26.098Z,57.20
2018-02-27T18:36:06.502Z,57.20
2018-02-27T18:38:47.236Z,57.30
2018-02-27T18:41:27.263Z,57.50
2018-02-27T18:44:06.829Z,57.40
2018-02-27T18:46:46.428Z,58.00
2018-02-27T18:49:22.348Z,57.70
2018-02-27T18:52:00.595Z,57.70
2018-02-27T18:54:34.926Z,57.50
2018-02-27T18:57:14.929Z,57.60
2018-02-27T18:59:53.798Z,57.60
2018-02-27T19:02:33.440Z,57.90
2018-02-27T19:05:07.444Z,58.00
2018-02-27T19:07:45.320Z,57.90
2018-02-27T19:10:24.324Z,58.20
2018-02-27T19:13:03.953Z,58.50
2018-02-27T19:15:44.963Z,58.60
2018-02-27T19:18:25.095Z,58.60
2018-02-27T19:21:06.233Z,58.80
2018-02-27T19:23:45.324Z,59.00
2018-02-27T19:26:23.918Z,59.00
2018-02-27T19:29:02.034Z,59.20
2018-02-27T19:31:39.728Z,59.10
2018-02-27T19:34:17.801Z,59.10
2018-02-27T19:36:57.375Z,58.80
2018-02-27T19:39:31.088Z,58.80
2018-02-27T19:42:11.148Z,58.70
2018-02-27T19:44:49.712Z,59.20
2018-02-27T19:47:24.223Z,59.30
2018-02-27T19:50:03.136Z,59.50
2018-02-27T19:52:42.476Z,59.50
2018-02-27T19:55:22.631Z,59.70
2018-02-27T19:57:57.286Z,59.70
2018-02-27T20:00:36.906Z,60.20
2018-02-27T20:03:18.284Z,60.20
2018-02-27T20:05:57.267Z,60.20
2018-02-27T20:08:30.673Z,60.60
2018-02-27T20:11:03.795Z,60.70
2018-02-27T20:13:43.691Z,62.00
2018-02-27T20:16:24.799Z,61.10
2018-02-27T20:18:57.952Z,60.80
2018-02-27T20:21:34.980Z,61.10
2018-02-27T20:24:17.556Z,61.20
2018-02-27T20:26:59.659Z,61.50
2018-02-27T20:29:40.311Z,61.70
2018-02-27T20:32:13.109Z,62.00
2018-02-27T20:34:52.651Z,61.90
2018-02-27T20:37:32.599Z,62.20
2018-02-27T20:40:07.616Z,62.60
2018-02-27T20:42:46.480Z,62.60
2018-02-27T20:45:24.548Z,62.80
2018-02-27T20:48:03.380Z,63.20
2018-02-27T20:50:41.835Z,63.20
2018-02-27T20:53:22.087Z,63.40
2018-02-27T20:56:01.357Z,63.60
2018-02-27T20:58:43.104Z,64.40
2018-02-27T21:01:16.461Z,64.40
2018-02-27T21:03:56.265Z,64.70
2018-02-27T21:06:30.671Z,64.60
2018-02-27T21:09:03.190Z,64.80
2018-02-27T21:11:44.345Z,64.90
2018-02-27T21:14:23.092Z,64.90
2018-02-27T21:17:03.430Z,64.60
2018-02-27T21:19:38.694Z,64.80
2018-02-27T21:22:20.388Z,65.10
2018-02-27T21:24:59.212Z,65.10
2018-02-27T21:27:33.062Z,65.10
2018-02-27T21:30:05.763Z,65.00
2018-02-27T21:32:44.948Z,65.10
2018-02-27T21:35:25.238Z,65.30
2018-02-27T21:38:03.238Z,65.70
2018-02-27T21:40:43.953Z,66.00
2018-02-27T21:43:25.134Z,66.20
2018-02-27T21:45:59.008Z,67.20
2018-02-27T21:48:38.611Z,66.40
2018-02-27T21:51:18.025Z,66.70
2018-02-27T21:53:56.532Z,66.60
2018-02-27T21:56:31.225Z,67.20
2018-02-27T21:59:10.714Z,67.20
2018-02-27T22:01:49.802Z,67.50
2018-02-27T22:04:25.812Z,67.80
2018-02-27T22:07:03.802Z,67.80
2018-02-27T22:09:43.540Z,68.00
2018-02-27T22:12:23.899Z,68.30
2018-02-27T22:15:06.072Z,69.00
2018-02-27T22:17:43.572Z,69.00
2018-02-27T22:20:19.748Z,70.50
2018-02-27T22:22:59.976Z,69.90
2018-02-27T22:25:40.515Z,70.70
2018-02-27T22:28:19.184Z,71.50
2018-02-27T22:31:01.826Z,73.20
2018-02-27T22:33:34.632Z,72.50
2018-02-27T22:36:11.655Z,73.00
2018-02-27T22:38:50.964Z,74.00
2018-02-27T22:41:29.381Z,74.00
2018-02-27T22:44:08.676Z,75.00
2018-02-27T22:46:42.407Z,74.60
2018-02-27T22:49:20.479Z,74.80
2018-02-27T22:51:58.341Z,75.10
2018-02-27T22:54:31.937Z,75.40
2018-02-27T22:57:12.628Z,75.80
2018-02-27T22:59:52.883Z,77.00
2018-02-27T23:02:27.062Z,76.80
2018-02-27T23:05:06.798Z,76.80
2018-02-27T23:07:41.067Z,77.00
2018-02-27T23:10:16.086Z,77.00
2018-02-27T23:12:50.106Z,77.50
2018-02-27T23:15:29.406Z,77.60
2018-02-27T23:18:09.246Z,77.70
2018-02-27T23:20:48.617Z,77.60
2018-02-27T23:23:29.373Z,77.90
2018-02-27T23:26:14.158Z,78.00
2018-02-27T23:28:55.305Z,78.00
2018-02-27T23:31:29.127Z,78.10
2018-02-27T23:34:19.651Z,78.10
2018-02-27T23:36:58.761Z,78.20
2018-02-27T23:39:37.628Z,78.30
2018-02-27T23:42:17.889Z,78.70
2018-02-27T23:44:55.323Z,78.90
2018-02-27T23:47:35.055Z,79.10
2018-02-27T23:50:17.768Z,79.40
2018-02-27T23:52:56.632Z,79.60
2018-02-27T23:55:38.374Z,79.50
2018-02-27T23:58:17.357Z,79.60
